Time;durP1;ratioP1;P1;durP2;ratioP2;P2;SDS_P1;SDS_P2;PMS_P1;PMS_P2;Temp;Humidity;BMP_temperature;BMP_pressure;BME280_temperature;BME280_humidity;BME280_pressure;Samples;Min_cycle;Max_cycle;Signal;HPM_P1;HPM_P2
2023/06/24 00:04:31;;;;;;;4.78;4.28;;;18.80;99.90;;;17.65;100.00;100191.41;12461749;23;96563;-88
2023/06/24 00:09:35;;;;;;;4.32;3.47;;;18.80;99.90;;;17.70;100.00;100217.66;12484336;23;96556;-88
2023/06/24 00:14:39;;;;;;;5.82;3.47;;;18.90;99.90;;;17.76;100.00;100234.81;12460338;23;96471;-88
2023/06/24 00:19:44;;;;;;;4.00;3.60;;;19.00;99.90;;;17.81;100.00;100224.22;12458613;23;96845;-88
2023/06/24 00:24:47;;;;;;;4.47;3.40;;;19.00;99.90;;;17.86;100.00;100230.59;12460786;23;96509;-88
2023/06/24 00:29:51;;;;;;;5.68;3.38;;;19.10;99.90;;;17.91;100.00;100246.91;12485305;23;96803;-90
2023/06/24 00:34:59;;;;;;;4.68;3.42;;;19.20;99.90;;;17.90;100.00;100231.81;12460321;23;96483;-91
2023/06/24 00:40:05;;;;;;;4.65;3.70;;;19.20;99.90;;;17.84;100.00;100227.31;12460876;23;96397;-91
2023/06/24 00:45:09;;;;;;;4.55;3.42;;;19.10;99.90;;;17.77;100.00;100213.09;12436482;23;96641;-91
2023/06/24 00:50:17;;;;;;;3.90;3.30;;;19.10;99.90;;;17.76;100.00;100229.44;12460635;23;96474;-92
2023/06/24 00:55:21;;;;;;;3.30;2.67;;;19.00;99.90;;;17.75;100.00;100208.94;12485407;23;97702;-88
2023/06/24 01:00:26;;;;;;;3.35;2.10;;;19.00;99.90;;;17.76;97.17;100206.06;12478657;23;96788;-89
2023/06/24 01:05:35;;;;;;;4.35;2.03;;;19.00;99.90;;;17.86;93.83;100186.75;12456079;23;96832;-90
2023/06/24 01:10:39;;;;;;;2.80;2.30;;;19.20;99.90;;;17.87;94.97;100170.44;12459689;23;97050;-89
2023/06/24 01:15:45;;;;;;;3.33;2.13;;;19.20;99.90;;;17.92;93.63;100157.16;12461418;23;96776;-88
2023/06/24 01:20:58;;;;;;;3.85;2.15;;;19.20;99.90;;;17.97;92.40;100145.75;12461934;23;96754;-87
2023/06/24 01:26:13;;;;;;;4.00;2.20;;;19.20;99.90;;;17.98;92.74;100147.41;12485923;23;96524;-88
2023/06/24 01:31:58;;;;;;;3.10;2.30;;;19.30;99.90;;;18.01;91.91;100138.09;12487174;23;96905;-88
2023/06/24 01:37:25;;;;;;;2.67;2.15;;;19.30;99.90;;;18.03;90.77;100146.75;12466389;23;96506;-87
2023/06/24 01:42:30;;;;;;;5.95;2.42;;;19.30;99.90;;;18.03;91.18;100141.38;12440751;23;96459;-90
2023/06/24 01:47:35;;;;;;;3.58;2.25;;;19.30;99.90;;;17.98;91.63;100141.19;12487594;23;96564;-88
2023/06/24 01:52:43;;;;;;;4.97;2.50;;;19.20;99.90;;;17.99;91.65;100134.78;12462491;23;96506;-87
2023/06/24 01:57:50;;;;;;;4.57;2.42;;;19.20;99.90;;;17.97;90.97;100134.19;12460844;23;96628;-89
2023/06/24 02:02:54;;;;;;;3.50;2.50;;;19.20;99.90;;;17.92;92.73;100135.66;12460312;23;97292;-85
2023/06/24 02:07:59;;;;;;;2.63;2.17;;;19.20;99.90;;;17.84;92.02;100118.97;12461180;23;96469;-88
2023/06/24 02:13:05;;;;;;;3.03;2.13;;;19.10;99.90;;;17.83;91.76;100103.88;12462275;23;96484;-90
2023/06/24 02:18:12;;;;;;;3.13;1.90;;;19.00;99.90;;;17.80;91.13;100113.19;12438310;23;96747;-86
2023/06/24 02:23:17;;;;;;;2.40;2.08;;;19.00;99.90;;;17.76;90.14;100109.31;12486077;23;96596;-85
2023/06/24 02:28:21;;;;;;;2.92;1.92;;;19.00;99.90;;;17.79;90.32;100118.78;12484723;23;97003;-87
2023/06/24 02:33:26;;;;;;;3.30;1.77;;;19.00;99.90;;;17.76;92.15;100133.50;12459875;23;97044;-89
2023/06/24 02:38:29;;;;;;;6.32;2.25;;;19.00;99.90;;;17.68;93.21;100136.38;12462121;23;96439;-86
2023/06/24 02:43:35;;;;;;;3.55;1.90;;;18.90;99.90;;;17.60;94.55;100155.47;12486370;23;96577;-87
2023/06/24 02:48:40;;;;;;;3.85;2.03;;;18.80;99.90;;;17.51;94.52;100148.69;12485159;23;96964;-87
2023/06/24 02:53:46;;;;;;;2.50;1.98;;;18.70;99.90;;;17.47;94.94;100155.53;12460296;23;96410;-86
2023/06/24 02:58:52;;;;;;;2.97;1.98;;;18.70;99.90;;;17.39;95.57;100144.00;12460431;23;96744;-87
2023/06/24 03:03:57;;;;;;;6.38;2.17;;;18.60;99.90;;;17.38;96.08;100161.13;12461408;23;97176;-86
2023/06/24 03:09:02;;;;;;;3.70;2.10;;;18.60;99.90;;;17.37;96.22;100170.22;12483784;23;97086;-87
2023/06/24 03:14:06;;;;;;;2.58;2.10;;;18.60;99.90;;;17.36;95.87;100184.69;12460595;23;96419;-85
2023/06/24 03:19:10;;;;;;;3.78;1.85;;;18.60;99.90;;;17.32;96.14;100183.47;12460683;23;96472;-86
2023/06/24 03:24:14;;;;;;;3.40;1.88;;;18.50;99.90;;;17.30;96.24;100184.72;12461126;23;96764;-86
2023/06/24 03:29:17;;;;;;;3.50;1.77;;;18.50;99.90;;;17.27;96.59;100196.72;12460942;23;96416;-87
2023/06/24 03:34:21;;;;;;;3.42;2.22;;;18.50;99.90;;;17.23;97.14;100198.19;12460734;23;96477;-85
2023/06/24 03:39:25;;;;;;;7.53;2.05;;;18.50;99.90;;;17.18;96.79;100197.97;12485906;23;96703;-86
2023/06/24 03:44:29;;;;;;;2.50;1.70;;;18.40;99.90;;;17.15;95.66;100193.03;12482065;23;96674;-87
2023/06/24 03:49:33;;;;;;;2.47;1.60;;;18.30;99.90;;;17.13;95.20;100197.78;12461061;23;97068;-87
2023/06/24 03:54:38;;;;;;;3.67;1.95;;;18.40;99.90;;;17.10;95.55;100195.53;12458183;23;96877;-87
2023/06/24 03:59:43;;;;;;;4.30;1.50;;;18.30;99.90;;;17.12;95.85;100201.50;12460483;23;96758;-85
2023/06/24 04:04:49;;;;;;;5.18;1.50;;;18.30;99.90;;;17.09;96.31;100210.81;12458944;23;96824;-89
2023/06/24 04:09:56;;;;;;;4.55;1.77;;;18.30;99.90;;;17.16;96.42;100213.50;12461140;23;96536;-87
2023/06/24 04:15:00;;;;;;;2.35;1.70;;;18.40;99.90;;;17.23;95.97;100216.97;12461461;23;96519;-87
2023/06/24 04:20:09;;;;;;;1.90;1.38;;;18.40;99.90;;;17.34;95.14;100239.69;12437037;23;96513;-88
2023/06/24 04:25:13;;;;;;;1.98;1.42;;;18.50;99.90;;;17.38;94.26;100241.72;12459723;23;96551;-89
2023/06/24 04:30:17;;;;;;;2.50;1.67;;;18.60;99.90;;;17.43;93.84;100226.84;12435312;23;96405;-90
2023/06/24 04:35:20;;;;;;;5.43;1.25;;;18.60;99.90;;;17.47;93.64;100233.44;12459184;23;96560;-92
2023/06/24 04:40:24;;;;;;;2.78;1.23;;;18.60;99.90;;;17.57;93.88;100223.91;12483082;23;96461;-87
2023/06/24 04:45:27;;;;;;;2.65;1.45;;;18.70;99.90;;;17.68;93.85;100227.75;12457312;23;97004;-88
2023/06/24 04:50:31;;;;;;;3.15;1.23;;;18.90;99.90;;;17.81;92.90;100226.91;12460468;23;96501;-87
2023/06/24 04:55:35;;;;;;;2.65;1.20;;;19.00;99.90;;;17.85;91.71;100223.56;12459547;23;96454;-86
2023/06/24 05:00:39;;;;;;;2.25;1.27;;;19.00;99.90;;;17.97;91.13;100228.28;12460079;23;96688;-86
2023/06/24 05:05:43;;;;;;;1.83;0.93;;;19.10;99.90;;;18.07;91.14;100247.47;12484493;23;96489;-85
2023/06/24 05:10:47;;;;;;;3.17;1.13;;;19.30;99.90;;;18.16;90.15;100243.47;12460662;23;96542;-89
2023/06/24 05:15:50;;;;;;;4.25;1.20;;;19.40;99.90;;;18.23;89.51;100240.72;12459305;23;96449;-88
2023/06/24 05:20:54;;;;;;;4.72;1.17;;;19.40;99.90;;;18.33;88.63;100246.47;12459513;23;97022;-87
2023/06/24 05:26:01;;;;;;;1.45;1.00;;;19.50;99.90;;;18.41;88.53;100238.97;12457852;23;96938;-86
2023/06/24 05:31:05;;;;;;;2.10;1.00;;;19.60;99.90;;;18.51;86.46;100251.91;12457831;23;96447;-88
2023/06/24 05:36:09;;;;;;;2.53;1.15;;;19.70;99.90;;;18.58;85.47;100252.69;12483493;23;96356;-86
2023/06/24 05:41:12;;;;;;;2.13;0.70;;;19.80;99.90;;;18.71;86.87;100262.56;12458731;23;97388;-88
2023/06/24 05:46:16;;;;;;;1.00;0.70;;;19.90;99.90;;;18.81;85.43;100260.19;12481499;23;97251;-90
2023/06/24 05:51:20;;;;;;;1.15;0.80;;;20.00;99.90;;;18.87;85.18;100259.31;12458673;23;96359;-90
2023/06/24 05:56:26;;;;;;;1.08;0.65;;;20.10;99.90;;;19.00;85.27;100277.22;12461410;23;96430;-91
2023/06/24 06:01:30;;;;;;;1.00;0.70;;;20.20;99.90;;;19.07;85.04;100277.16;12439133;23;96523;-89
2023/06/24 06:06:34;;;;;;;3.03;1.02;;;20.30;99.90;;;19.15;85.13;100279.59;12461360;23;96658;-90
2023/06/24 06:11:38;;;;;;;1.25;0.73;;;20.40;99.90;;;19.22;84.48;100277.66;12460196;23;96553;-89
2023/06/24 06:16:42;;;;;;;1.55;1.10;;;20.50;99.90;;;19.32;83.98;100285.22;12469591;23;96604;-86
2023/06/24 06:21:46;;;;;;;1.20;0.80;;;20.50;99.90;;;19.41;84.07;100295.47;12459128;23;96555;-88
2023/06/24 06:26:49;;;;;;;1.33;0.93;;;20.60;99.90;;;19.54;83.85;100299.91;12484092;23;96460;-88
2023/06/24 06:31:55;;;;;;;2.08;1.00;;;20.80;99.90;;;19.66;83.26;100295.44;12456834;23;97046;-85
2023/06/24 06:36:58;;;;;;;1.85;0.85;;;20.90;99.90;;;19.81;83.50;100300.47;12434633;23;96819;-88
2023/06/24 06:42:02;;;;;;;2.38;1.00;;;21.00;99.90;;;19.91;81.17;100302.63;12461119;23;96720;-89
2023/06/24 06:47:07;;;;;;;3.08;0.80;;;21.10;99.90;;;19.92;82.47;100313.19;12457751;23;97312;-88
2023/06/24 06:52:10;;;;;;;2.33;0.90;;;21.10;99.90;;;19.96;82.77;100318.94;12462336;23;96508;-89
2023/06/24 06:57:14;;;;;;;1.23;0.75;;;21.20;99.90;;;19.98;81.24;100314.97;12460218;23;96609;-89
2023/06/24 07:02:19;;;;;;;3.30;1.02;;;21.20;99.90;;;20.04;82.05;100322.16;12458575;23;96471;-88
2023/06/24 07:07:22;;;;;;;1.40;0.70;;;21.20;99.90;;;20.19;81.45;100323.63;12483656;23;96804;-86
2023/06/24 07:12:27;;;;;;;0.90;0.80;;;21.40;99.90;;;20.40;81.76;100325.84;12460745;23;96924;-87
2023/06/24 07:17:31;;;;;;;1.08;0.70;;;21.60;99.90;;;20.63;81.12;100329.69;12437345;23;96789;-88
2023/06/24 07:22:36;;;;;;;3.65;0.85;;;21.90;99.90;;;20.81;80.26;100335.00;12482318;23;97193;-88
2023/06/24 07:27:39;;;;;;;2.70;0.80;;;22.10;99.90;;;20.97;79.20;100328.13;12493500;23;97002;-91
2023/06/24 07:32:43;;;;;;;2.75;0.80;;;22.20;99.90;;;21.09;77.91;100327.06;12459349;23;96707;-87
2023/06/24 07:37:46;;;;;;;1.52;0.60;;;22.40;99.90;;;21.23;78.70;100329.53;12485773;23;96541;-89
2023/06/24 07:42:50;;;;;;;4.30;0.75;;;22.50;99.90;;;21.33;76.30;100325.22;12462608;23;96392;-88
2023/06/24 07:47:54;;;;;;;2.30;0.70;;;22.60;99.90;;;21.51;77.50;100339.69;12461484;23;96577;-89
2023/06/24 07:52:57;;;;;;;1.05;0.60;;;22.70;99.90;;;21.66;76.87;100333.81;12485257;23;96401;-89
2023/06/24 07:58:04;;;;;;;1.70;0.77;;;22.90;99.90;;;21.81;76.76;100326.81;12482740;23;96476;-90
2023/06/24 08:03:09;;;;;;;1.10;0.80;;;23.20;99.90;;;22.06;76.79;100326.53;12460881;23;96859;-86
2023/06/24 08:08:13;;;;;;;1.42;1.20;;;23.40;99.90;;;22.30;74.26;100316.47;12461358;23;96589;-89
2023/06/24 08:13:17;;;;;;;1.00;0.90;;;23.60;99.40;;;22.50;72.69;100343.13;12460364;23;96646;-88
2023/06/24 08:18:20;;;;;;;1.20;0.90;;;23.80;99.00;;;22.57;71.87;100332.94;12485278;23;96365;-88
2023/06/24 08:23:27;;;;;;;1.25;0.73;;;23.80;98.50;;;22.66;71.24;100323.34;12486204;23;96469;-86
2023/06/24 08:28:31;;;;;;;2.30;0.80;;;24.00;98.30;;;22.76;71.58;100336.25;12460025;23;96428;-90
2023/06/24 08:33:34;;;;;;;3.92;0.85;;;24.00;98.30;;;22.84;73.24;100330.41;12486511;23;96550;-85
2023/06/24 08:38:38;;;;;;;2.65;0.93;;;24.10;98.30;;;22.96;71.20;100322.25;12459610;23;96501;-89
2023/06/24 08:43:42;;;;;;;1.02;0.82;;;24.20;97.80;;;23.08;71.53;100322.97;12459497;23;96600;-88
2023/06/24 08:48:48;;;;;;;1.17;0.80;;;24.40;97.60;;;23.27;71.60;100338.97;12436100;23;98054;-91
2023/06/24 08:53:53;;;;;;;1.58;1.00;;;24.50;97.60;;;23.34;68.47;100329.63;12459915;23;96408;-88
2023/06/24 08:58:57;;;;;;;0.90;0.80;;;24.70;96.70;;;23.54;66.90;100339.94;12459439;23;96475;-89
2023/06/24 09:04:00;;;;;;;1.00;0.90;;;24.80;96.30;;;23.62;66.98;100330.56;12457823;23;96903;-90
2023/06/24 09:09:04;;;;;;;1.42;1.00;;;25.00;95.80;;;23.68;67.27;100338.53;12459629;23;96497;-88
2023/06/24 09:14:12;;;;;;;1.70;1.10;;;25.00;95.70;;;23.70;67.22;100328.25;12484680;23;96434;-90
2023/06/24 09:19:21;;;;;;;1.23;0.80;;;25.10;95.50;;;23.81;68.63;100328.38;12457769;23;96515;-91
2023/06/24 09:24:30;;;;;;;1.20;0.88;;;25.10;95.80;;;23.68;65.42;100330.38;12437844;23;96539;-86
2023/06/24 09:29:36;;;;;;;1.90;0.80;;;25.10;94.90;;;23.37;67.08;100329.13;12461207;23;96789;-87
2023/06/24 09:34:39;;;;;;;1.90;1.10;;;24.70;95.20;;;23.06;67.80;100317.00;12461558;23;96906;-86
2023/06/24 09:39:45;;;;;;;5.38;1.15;;;24.30;95.40;;;23.02;69.92;100321.25;12461165;23;96584;-85
2023/06/24 09:44:56;;;;;;;2.15;1.00;;;24.30;96.20;;;23.12;71.05;100323.31;12483846;23;96991;-85
2023/06/24 09:50:00;;;;;;;1.70;1.15;;;24.30;96.40;;;23.46;70.56;100324.91;12461927;23;96466;-87
2023/06/24 09:55:08;;;;;;;3.53;1.10;;;24.70;96.40;;;23.69;68.12;100315.78;12461331;23;96646;-87
2023/06/24 10:00:16;;;;;;;2.83;1.23;;;25.00;95.50;;;23.82;66.77;100309.16;12460918;23;97021;-83
2023/06/24 10:05:21;;;;;;;1.40;1.03;;;25.10;95.10;;;24.02;66.49;100309.38;12460319;23;96707;-88
2023/06/24 10:10:24;;;;;;;1.50;0.90;;;25.30;94.90;;;24.18;67.10;100315.00;12459626;23;96889;-88
2023/06/24 10:15:28;;;;;;;1.65;1.08;;;25.40;94.70;;;24.34;65.56;100308.66;12461027;23;96777;-94
2023/06/24 10:20:38;;;;;;;2.17;1.20;;;25.60;94.40;;;24.49;65.00;100302.59;12456834;23;96556;-87
2023/06/24 10:25:46;;;;;;;1.70;1.08;;;25.80;94.10;;;24.59;64.48;100286.38;12461502;23;96550;-90
2023/06/24 10:30:56;;;;;;;1.67;0.90;;;25.80;93.70;;;24.70;64.01;100276.41;12460455;23;96408;-90
2023/06/24 10:36:00;;;;;;;1.40;0.95;;;25.90;93.60;;;24.87;63.38;100279.00;12482946;23;96904;-92
2023/06/24 10:41:15;;;;;;;2.85;1.00;;;26.20;93.40;;;25.03;62.64;100267.97;12460671;23;96516;-92
2023/06/24 10:46:20;;;;;;;2.15;0.90;;;26.30;92.60;;;25.28;63.10;100288.28;12461430;23;96476;-88
2023/06/24 10:51:23;;;;;;;2.47;0.98;;;26.60;93.00;;;25.35;61.74;100269.81;12461239;23;96505;-90
2023/06/24 10:56:30;;;;;;;1.35;1.00;;;26.60;92.70;;;25.33;60.30;100277.44;12460999;23;96784;-88
2023/06/24 11:01:34;;;;;;;1.85;1.00;;;26.70;92.00;;;25.24;61.24;100281.72;12437509;23;96795;-91
2023/06/24 11:06:37;;;;;;;2.15;0.82;;;26.50;91.80;;;25.12;61.01;100276.47;12461119;23;97154;-85
2023/06/24 11:11:41;;;;;;;1.40;1.00;;;26.40;91.70;;;24.97;61.11;100273.63;12483024;23;97565;-86
2023/06/24 11:16:48;;;;;;;2.72;1.30;;;26.30;91.70;;;24.95;63.95;100278.50;12459101;23;97100;-87
2023/06/24 11:21:51;;;;;;;1.17;1.02;;;26.20;92.30;;;25.09;62.33;100288.69;12457966;23;96743;-87
2023/06/24 11:26:55;;;;;;;1.10;0.95;;;26.30;92.00;;;25.07;61.90;100282.72;12460699;23;96534;-85
2023/06/24 11:32:02;;;;;;;1.20;0.80;;;26.30;91.80;;;25.02;61.46;100277.22;12484585;23;96653;-87
2023/06/24 11:37:14;;;;;;;1.05;0.88;;;26.30;91.60;;;24.98;62.71;100267.13;12459690;23;96588;-91
2023/06/24 11:42:18;;;;;;;1.63;0.80;;;26.20;91.80;;;25.09;64.27;100257.97;12459482;23;96912;-86
2023/06/24 11:47:23;;;;;;;3.13;1.27;;;26.40;92.40;;;25.33;61.94;100250.22;12460115;23;97798;-86
2023/06/24 11:52:36;;;;;;;2.22;1.10;;;26.60;91.80;;;25.74;60.20;100245.00;12460520;23;96430;-86
2023/06/24 11:58:01;;;;;;;1.17;0.85;;;27.00;90.70;;;25.74;59.29;100239.56;12484659;23;96450;-90
2023/06/24 12:03:06;;;;;;;1.05;0.90;;;27.20;90.40;;;25.82;59.97;100237.13;12460943;23;97031;-91
2023/06/24 12:08:15;;;;;;;;;;;27.30;90.50;;;26.01;58.95;100217.56;12438560;23;96832;-88
2023/06/24 12:13:19;;;;;;;1.58;0.90;;;27.60;89.10;;;26.50;56.58;100225.28;12459589;23;96618;-86
2023/06/24 12:18:23;;;;;;;2.55;0.80;;;28.40;87.60;;;26.84;57.81;100206.44;12487121;23;96834;-87
2023/06/24 12:23:26;;;;;;;1.23;0.80;;;28.90;87.30;;;27.22;55.25;100205.00;12487696;23;96905;-84
2023/06/24 12:28:30;;;;;;;1.35;0.88;;;29.50;84.30;;;27.66;53.67;100205.09;12487372;23;96555;-85
2023/06/24 12:33:34;;;;;;;1.10;0.80;;;30.10;82.40;;;27.87;51.80;100214.03;12462154;23;96586;-87
2023/06/24 12:38:39;;;;;;;2.00;0.70;;;30.10;79.70;;;27.91;52.19;100217.81;12460605;23;96486;-85
2023/06/24 12:43:42;;;;;;;2.92;0.90;;;29.80;80.20;;;27.81;51.84;100214.34;12483326;23;96429;-85
2023/06/24 12:48:46;;;;;;;0.93;0.80;;;29.50;80.20;;;27.85;52.25;100209.94;12461544;23;96518;-88
2023/06/24 12:53:49;;;;;;;1.20;0.80;;;29.30;80.90;;;28.03;51.71;100206.56;12485874;23;96437;-87
2023/06/24 12:58:53;;;;;;;1.20;0.80;;;29.40;80.40;;;28.14;52.12;100189.00;12484837;23;96455;-89
2023/06/24 13:03:56;;;;;;;3.08;1.05;;;29.60;80.10;;;28.40;52.15;100202.50;12460853;23;97536;-88
2023/06/24 13:09:00;;;;;;;1.20;0.90;;;29.80;79.90;;;28.26;51.90;100205.84;12487845;23;96368;-86
2023/06/24 13:14:04;;;;;;;2.95;0.93;;;29.80;79.30;;;28.21;51.83;100196.88;12462805;23;97035;-86
2023/06/24 13:19:07;;;;;;;0.88;0.80;;;29.70;79.10;;;28.37;51.69;100189.38;12462506;23;96480;-86
2023/06/24 13:24:12;;;;;;;2.10;1.10;;;29.70;79.40;;;28.45;51.03;100189.59;12486919;23;96881;-88
2023/06/24 13:29:16;;;;;;;1.17;1.08;;;29.60;79.10;;;28.36;49.90;100196.75;12463009;23;97130;-85
2023/06/24 13:34:20;;;;;;;2.80;1.38;;;29.50;78.00;;;28.41;50.92;100199.47;12459984;23;96568;-87
2023/06/24 13:39:23;;;;;;;2.63;1.42;;;29.30;79.00;;;28.37;51.38;100205.78;12458379;23;96453;-90
2023/06/24 13:44:27;;;;;;;2.13;1.60;;;29.30;79.10;;;28.14;50.48;100201.84;12460805;23;96696;-90
2023/06/24 13:49:30;;;;;;;1.83;1.45;;;29.10;78.40;;;27.99;51.46;100206.28;12461437;23;96527;-87
2023/06/24 13:54:35;;;;;;;1.98;1.40;;;28.90;78.90;;;27.96;52.38;100209.63;12437775;23;96652;-93
2023/06/24 13:59:39;;;;;;;1.73;1.55;;;28.80;79.40;;;27.93;51.51;100217.53;12461896;23;96674;-88
2023/06/24 14:04:43;;;;;;;2.13;1.70;;;28.90;79.10;;;27.59;51.99;100209.22;12462075;23;96452;-88
2023/06/24 14:09:47;;;;;;;2.90;1.70;;;28.60;79.00;;;27.35;52.97;100214.50;12485316;23;96647;-90
2023/06/24 14:14:51;;;;;;;2.85;1.90;;;28.40;80.10;;;27.20;54.77;100215.38;12461710;23;96556;-87
2023/06/24 14:19:55;;;;;;;4.00;2.25;;;28.20;81.00;;;27.02;54.70;100196.88;12460941;23;96610;-86
2023/06/24 14:24:59;;;;;;;3.13;2.00;;;28.20;81.00;;;27.10;55.11;100190.84;12460834;23;96672;-88
2023/06/24 14:30:03;;;;;;;2.10;1.80;;;28.20;81.60;;;27.19;54.66;100202.84;12486803;23;96438;-88
2023/06/24 14:35:08;;;;;;;2.42;2.00;;;28.40;81.00;;;26.95;54.94;100181.59;12460193;23;96565;-91
2023/06/24 14:40:12;;;;;;;3.05;2.05;;;28.30;81.00;;;26.75;56.99;100198.03;12462301;23;96647;-83
2023/06/24 14:45:15;;;;;;;3.20;2.28;;;28.10;81.90;;;26.89;56.07;100192.81;12484382;23;96462;-86
2023/06/24 14:50:19;;;;;;;2.25;2.05;;;28.20;81.70;;;26.82;55.75;100193.09;12461722;23;96463;-85
2023/06/24 14:55:23;;;;;;;2.85;2.00;;;28.30;80.90;;;26.44;56.88;100180.03;12484417;23;96459;-86
2023/06/24 15:00:27;;;;;;;2.55;2.03;;;27.80;81.60;;;26.14;57.76;100176.19;12460909;23;96546;-88
2023/06/24 15:05:32;;;;;;;2.65;2.00;;;27.40;82.40;;;26.29;57.87;100164.50;12462071;23;96332;-89
2023/06/24 15:10:36;;;;;;;2.25;2.05;;;27.50;83.10;;;26.48;56.94;100149.25;12460866;23;97618;-94
2023/06/24 15:15:40;;;;;;;2.17;1.98;;;27.60;82.50;;;26.54;57.62;100152.78;12461403;23;96354;-94
2023/06/24 15:20:44;;;;;;;3.20;1.98;;;27.70;83.00;;;26.77;57.20;100167.75;12438849;23;96698;-91
2023/06/24 15:25:49;;;;;;;2.55;2.20;;;28.00;82.70;;;27.00;56.23;100160.88;12459522;23;96733;-91
2023/06/24 15:30:53;;;;;;;3.03;2.47;;;28.40;81.90;;;27.07;55.47;100148.59;12483492;23;96871;-92
2023/06/24 15:35:59;;;;;;;3.03;2.72;;;28.50;80.90;;;27.00;54.75;100167.16;12459006;23;96535;-90
2023/06/24 15:41:03;;;;;;;3.67;2.65;;;28.50;80.10;;;26.89;55.56;100160.91;12461449;23;96700;-87
2023/06/24 15:46:06;;;;;;;3.45;2.80;;;28.40;80.20;;;26.47;56.26;100153.06;12459470;23;96873;-90
2023/06/24 15:51:10;;;;;;;4.18;2.72;;;27.80;80.90;;;25.94;57.96;100159.84;12458838;23;97163;-88
2023/06/24 15:56:13;;;;;;;3.10;2.80;;;27.20;81.90;;;25.46;59.24;100159.16;12460548;23;96435;-90
2023/06/24 16:01:17;;;;;;;4.45;2.88;;;26.60;83.40;;;25.02;61.35;100164.94;12459566;23;96762;-92
2023/06/24 16:06:23;;;;;;;5.07;2.90;;;26.20;85.20;;;24.67;62.59;100152.75;12461076;23;96513;-94
2023/06/24 16:11:26;;;;;;;4.88;3.05;;;25.80;87.10;;;24.67;63.88;100157.38;12485143;23;97094;-95
2023/06/24 16:16:30;;;;;;;3.95;2.88;;;25.70;87.50;;;24.76;63.95;100140.31;12484715;23;97122;-96
2023/06/24 16:21:34;;;;;;;3.53;3.10;;;25.80;88.50;;;25.03;62.42;100148.34;12485586;23;96848;-96
2023/06/24 16:26:38;;;;;;;3.42;2.85;;;26.00;87.80;;;25.04;61.91;100135.56;12486973;23;96422;-95
2023/06/24 16:31:54;;;;;;;4.30;3.50;;;26.10;87.10;;;24.89;63.29;100141.75;12464844;23;96721;-90
2023/06/24 16:36:58;;;;;;;3.95;3.20;;;26.00;87.70;;;24.72;63.54;100162.84;12486934;23;96485;-89
2023/06/24 16:42:01;;;;;;;3.95;2.85;;;25.70;88.10;;;24.52;64.09;100161.63;12462437;23;96358;-92
2023/06/24 16:47:05;;;;;;;3.13;2.83;;;25.60;88.50;;;24.29;64.28;100146.50;12459480;23;96481;-93
2023/06/24 16:52:09;;;;;;;4.20;3.20;;;25.40;88.90;;;24.06;65.63;100144.13;12467140;23;96438;-94
2023/06/24 16:57:12;;;;;;;3.80;3.20;;;25.20;89.70;;;23.92;66.36;100153.75;12460252;23;96379;-93
2023/06/24 17:02:16;;;;;;;4.00;3.40;;;25.00;90.10;;;23.77;67.07;100155.25;12485837;23;96717;-93
2023/06/24 17:07:20;;;;;;;5.10;3.15;;;24.80;90.40;;;23.70;68.32;100142.97;12460240;23;96721;-94
2023/06/24 17:12:23;;;;;;;5.72;3.10;;;24.70;90.80;;;23.68;68.18;100145.91;12459033;23;96582;-94
2023/06/24 17:17:27;;;;;;;7.28;3.25;;;24.70;90.90;;;23.74;68.28;100144.06;12483276;23;97030;-89
2023/06/24 17:22:30;;;;;;;4.07;3.33;;;24.70;90.90;;;23.86;65.59;100143.91;12459535;23;96479;-92
2023/06/24 17:27:35;;;;;;;4.20;3.22;;;24.90;90.40;;;23.92;65.47;100148.31;12459729;23;96869;-92
2023/06/24 17:32:38;;;;;;;4.63;3.97;;;25.00;90.00;;;23.86;64.77;100161.03;12463747;23;96506;-94
2023/06/24 17:37:42;;;;;;;4.40;3.60;;;24.90;89.40;;;23.68;65.33;100161.38;12506261;23;97007;-95
2023/06/24 17:42:45;;;;;;;4.95;4.30;;;24.70;89.50;;;23.51;65.51;100166.88;12466333;23;96356;-93
2023/06/24 17:47:51;;;;;;;4.68;4.18;;;24.50;89.80;;;23.33;66.65;100156.31;12481003;23;96982;-91
2023/06/24 17:52:54;;;;;;;5.78;4.50;;;24.30;90.20;;;23.12;67.17;100147.13;12488734;23;96355;-93
2023/06/24 17:57:58;;;;;;;5.38;4.88;;;24.10;90.40;;;22.90;68.24;100163.38;12484293;23;96496;-89
2023/06/24 18:03:02;;;;;;;4.70;4.20;;;23.90;90.70;;;22.68;68.94;100157.91;12483267;23;97646;-89
2023/06/24 18:08:06;;;;;;;5.20;4.65;;;23.70;91.00;;;22.50;69.45;100158.97;12454143;23;96466;-89
2023/06/24 18:13:10;;;;;;;6.38;4.85;;;23.50;91.50;;;22.33;70.33;100166.28;12485910;23;97516;-90
2023/06/24 18:18:14;;;;;;;7.25;5.00;;;23.40;91.50;;;22.13;70.64;100167.59;12485523;23;96372;-89
2023/06/24 18:23:17;;;;;;;6.00;5.40;;;23.20;91.70;;;21.94;71.27;100171.53;12486976;23;96699;-91
2023/06/24 18:28:21;;;;;;;5.75;5.15;;;23.00;91.90;;;21.76;71.25;100169.03;12461561;23;96421;-89
2023/06/24 18:33:24;;;;;;;6.00;5.40;;;22.80;92.10;;;21.63;72.17;100178.25;12462379;23;96423;-88
2023/06/24 18:38:28;;;;;;;7.20;5.22;;;22.70;92.30;;;21.49;72.63;100183.13;12486846;23;96455;-89
2023/06/24 18:43:31;;;;;;;7.32;5.63;;;22.50;92.50;;;21.38;73.16;100175.88;12462023;23;96976;-90
2023/06/24 18:48:37;;;;;;;5.40;4.90;;;22.40;92.70;;;21.27;74.15;100188.31;12461471;23;96514;-88
2023/06/24 18:53:41;;;;;;;6.88;4.97;;;22.30;93.00;;;21.16;74.37;100197.25;12438473;23;96671;-90
2023/06/24 18:58:45;;;;;;;5.25;4.75;;;22.20;93.20;;;20.99;74.90;100202.59;12460160;23;96355;-91
2023/06/24 19:03:48;;;;;;;6.53;5.45;;;22.00;93.40;;;20.84;75.70;100203.03;12461177;23;96415;-91
2023/06/24 19:08:52;;;;;;;5.57;4.80;;;21.90;93.70;;;20.72;76.28;100220.31;12461212;23;96545;-91
2023/06/24 19:13:56;;;;;;;5.35;4.85;;;21.80;94.00;;;20.64;76.88;100234.16;12461823;23;96386;-91
2023/06/24 19:19:01;;;;;;;6.38;5.30;;;21.70;94.20;;;20.50;77.73;100239.75;12488280;23;97039;-90
2023/06/24 19:24:05;;;;;;;6.72;4.95;;;21.60;94.50;;;20.38;78.36;100256.94;12462334;23;96448;-91
2023/06/24 19:29:09;;;;;;;6.38;4.80;;;21.40;94.80;;;20.29;78.97;100261.84;12486089;23;97103;-91
2023/06/24 19:34:13;;;;;;;5.60;4.65;;;21.40;95.00;;;20.24;78.93;100277.91;12461933;23;97053;-91
2023/06/24 19:39:17;;;;;;;6.30;5.00;;;21.30;95.20;;;20.15;79.80;100287.34;12461383;23;97129;-90
2023/06/24 19:44:20;;;;;;;5.80;4.85;;;21.20;95.50;;;20.04;80.32;100289.81;12486796;23;96640;-92
2023/06/24 19:49:24;;;;;;;6.10;4.82;;;21.10;95.70;;;20.00;81.32;100291.28;12459543;23;96419;-92
2023/06/24 19:54:28;;;;;;;6.20;4.82;;;21.10;96.00;;;19.96;81.10;100287.41;12456960;23;96728;-91
2023/06/24 19:59:31;;;;;;;5.47;4.68;;;21.10;96.10;;;19.99;81.53;100292.34;12457771;23;96479;-92
2023/06/24 20:04:35;;;;;;;5.70;5.05;;;21.10;96.30;;;19.94;81.73;100286.81;12484627;23;96374;-91
2023/06/24 20:09:39;;;;;;;5.43;4.93;;;21.00;96.50;;;19.91;81.94;100281.88;12460194;23;96904;-91
2023/06/24 20:14:43;;;;;;;5.55;4.78;;;20.90;96.60;;;19.88;82.46;100295.81;12483975;23;96566;-92
2023/06/24 20:19:48;;;;;;;5.43;4.85;;;21.00;96.90;;;19.81;83.11;100294.25;12455916;23;96837;-92
2023/06/24 20:24:51;;;;;;;6.13;5.03;;;20.90;97.20;;;19.75;83.29;100279.81;12460984;23;96435;-91
2023/06/24 20:29:55;;;;;;;4.90;4.40;;;20.80;97.40;;;19.70;84.05;100290.44;12460230;23;96411;-91
2023/06/24 20:34:59;;;;;;;6.43;5.60;;;20.70;97.60;;;19.66;84.50;100281.97;12480723;23;96873;-91
2023/06/24 20:40:03;;;;;;;5.35;4.57;;;20.80;97.80;;;19.70;84.37;100291.25;12456589;23;96988;-91
2023/06/24 20:45:08;;;;;;;6.80;4.75;;;20.80;97.80;;;19.69;84.34;100295.00;12461164;23;96781;-90
2023/06/24 20:50:12;;;;;;;7.38;4.88;;;20.80;97.90;;;19.68;84.88;100293.34;12435438;23;97308;-91
2023/06/24 20:55:15;;;;;;;7.55;4.78;;;20.80;98.00;;;19.68;84.82;100289.84;12482353;23;96827;-92